createdAt,value
2019-05-17T00:00:37.543Z,46.98
2019-05-17T00:03:07.176Z,44.83
2019-05-17T00:05:37.530Z,35.03
2019-05-17T00:08:07.705Z,45.85
2019-05-17T00:10:37.486Z,47.80
2019-05-17T00:13:09.331Z,28.57
2019-05-17T00:15:37.294Z,36.95
2019-05-17T00:18:06.675Z,28.87
2019-05-17T00:20:37.526Z,33.28
2019-05-17T00:23:07.046Z,34.60
2019-05-17T00:25:37.052Z,37.73
2019-05-17T00:28:07.399Z,43.23
2019-05-17T00:30:37.366Z,29.10
2019-05-17T00:33:07.866Z,29.10
2019-05-17T00:35:37.602Z,27.62
2019-05-17T00:38:07.047Z,32.05
2019-05-17T00:40:36.524Z,25.80
2019-05-17T00:43:06.798Z,32.03
2019-05-17T00:45:37.764Z,30.55
2019-05-17T00:48:06.947Z,25.30
2019-05-17T00:50:38.019Z,20.97
2019-05-17T00:53:07.269Z,18.65
2019-05-17T00:55:36.631Z,18.20
2019-05-17T00:58:06.723Z,25.62
2019-05-17T01:00:37.549Z,32.17
2019-05-17T01:03:07.305Z,17.25
2019-05-17T01:05:37.029Z,39.50
2019-05-17T01:08:07.386Z,23.07
2019-05-17T01:10:36.870Z,42.43
2019-05-17T01:13:06.749Z,22.15
2019-05-17T01:15:36.911Z,26.10
2019-05-17T01:18:07.227Z,29.23
2019-05-17T01:20:36.906Z,21.35
2019-05-17T01:23:07.703Z,34.67
2019-05-17T01:25:38.053Z,22.45
2019-05-17T01:28:07.848Z,25.97
2019-05-17T01:30:37.545Z,33.42
2019-05-17T01:33:07.024Z,66.15
2019-05-17T01:35:37.391Z,54.30
2019-05-17T01:38:07.457Z,66.55
2019-05-17T01:40:37.321Z,82.62
2019-05-17T01:43:07.991Z,37.38
2019-05-17T01:45:36.741Z,46.95
2019-05-17T01:48:07.343Z,47.55
2019-05-17T01:50:37.363Z,35.75
2019-05-17T01:53:07.429Z,27.20
2019-05-17T01:55:37.565Z,20.82
2019-05-17T01:58:07.303Z,20.23
2019-05-17T02:00:37.559Z,28.85
2019-05-17T02:03:07.420Z,23.18
2019-05-17T02:05:37.294Z,25.80
2019-05-17T02:08:06.976Z,21.82
2019-05-17T02:10:37.569Z,36.30
2019-05-17T02:13:06.884Z,23.57
2019-05-17T02:15:37.884Z,18.17
2019-05-17T02:18:06.968Z,31.45
2019-05-17T02:20:37.308Z,29.27
2019-05-17T02:23:07.248Z,22.48
2019-05-17T02:25:36.858Z,32.35
2019-05-17T02:28:05.898Z,22.58
2019-05-17T02:30:34.957Z,28.05
2019-05-17T02:33:04.657Z,18.55
2019-05-17T02:35:34.068Z,18.98
2019-05-17T02:38:03.371Z,21.15
2019-05-17T02:40:33.925Z,20.97
2019-05-17T02:43:03.477Z,21.37
2019-05-17T02:45:33.396Z,21.15
2019-05-17T02:48:03.824Z,24.95
2019-05-17T02:50:33.378Z,25.10
2019-05-17T02:53:04.530Z,21.85
2019-05-17T02:55:33.244Z,23.62
2019-05-17T02:58:03.041Z,23.55
2019-05-17T03:00:33.734Z,26.62
2019-05-17T03:03:04.201Z,24.72
2019-05-17T03:05:34.058Z,17.45
2019-05-17T03:08:03.974Z,19.25
2019-05-17T03:10:34.070Z,17.32
2019-05-17T03:13:04.560Z,18.75
2019-05-17T03:15:34.937Z,19.37
2019-05-17T03:18:04.075Z,25.77
2019-05-17T03:20:33.270Z,17.60
2019-05-17T03:23:03.712Z,17.98
2019-05-17T03:25:33.574Z,16.97
2019-05-17T03:28:03.648Z,19.70
2019-05-17T03:30:36.757Z,15.48
2019-05-17T03:33:07.503Z,15.60
2019-05-17T03:35:37.323Z,21.50
2019-05-17T03:38:05.843Z,19.23
2019-05-17T03:41:03.443Z,18.20
2019-05-17T03:43:04.810Z,18.27
2019-05-17T03:45:34.156Z,16.42
2019-05-17T03:48:04.648Z,14.33
2019-05-17T03:50:34.084Z,15.43
2019-05-17T03:53:02.986Z,14.78
2019-05-17T03:55:33.123Z,14.05
2019-05-17T03:58:03.355Z,15.63
2019-05-17T04:00:35.312Z,15.88
2019-05-17T04:03:03.314Z,22.70
2019-05-17T04:05:33.437Z,15.00
2019-05-17T04:08:03.523Z,14.80
2019-05-17T04:10:33.605Z,15.50
2019-05-17T04:13:04.535Z,14.50
2019-05-17T04:15:33.383Z,17.20
2019-05-17T04:18:04.122Z,14.70
2019-05-17T04:20:33.142Z,15.35
2019-05-17T04:23:03.971Z,12.58
2019-05-17T04:25:33.775Z,13.58
2019-05-17T04:28:03.364Z,14.80
2019-05-17T04:30:32.905Z,14.80
2019-05-17T04:33:03.372Z,14.18
2019-05-17T04:35:32.860Z,13.58
2019-05-17T04:38:04.377Z,13.98
2019-05-17T04:40:33.985Z,14.98
2019-05-17T04:43:03.220Z,15.72
2019-05-17T04:45:33.743Z,14.28
2019-05-17T04:48:04.147Z,17.15
2019-05-17T04:50:33.988Z,17.45
2019-05-17T04:53:03.266Z,15.18
2019-05-17T04:55:34.186Z,14.55
2019-05-17T04:58:03.837Z,17.60
2019-05-17T05:00:34.113Z,15.15
2019-05-17T05:03:04.439Z,16.80
2019-05-17T05:05:33.711Z,14.18
2019-05-17T05:08:03.193Z,24.60
2019-05-17T05:10:33.759Z,18.20
2019-05-17T05:13:03.474Z,20.12
2019-05-17T05:15:44.965Z,15.63
2019-05-17T05:18:14.180Z,14.93
2019-05-17T05:20:43.731Z,14.07
2019-05-17T05:23:13.489Z,15.32
2019-05-17T05:25:45.439Z,15.15
2019-05-17T05:28:14.210Z,23.77
2019-05-17T05:30:42.749Z,13.05
2019-05-17T05:33:12.793Z,13.78
2019-05-17T05:35:42.542Z,13.72
2019-05-17T05:38:12.977Z,15.00
2019-05-17T05:40:43.018Z,13.65
2019-05-17T05:43:12.090Z,15.28
2019-05-17T05:45:41.765Z,14.10
2019-05-17T05:48:12.890Z,12.23
2019-05-17T05:50:42.548Z,11.55
2019-05-17T05:53:12.927Z,14.00
2019-05-17T05:55:42.831Z,15.45
2019-05-17T05:58:12.546Z,14.05
2019-05-17T06:00:42.717Z,13.18
2019-05-17T06:03:12.199Z,13.20
2019-05-17T06:05:42.464Z,12.78
2019-05-17T06:08:12.210Z,13.13
2019-05-17T06:10:42.594Z,12.55
2019-05-17T06:13:12.974Z,12.93
2019-05-17T06:15:42.960Z,14.65
2019-05-17T06:18:12.393Z,10.90
2019-05-17T06:20:41.978Z,15.58
2019-05-17T06:23:12.339Z,16.20
2019-05-17T06:25:43.685Z,14.90
2019-05-17T06:28:11.876Z,14.00
2019-05-17T06:30:43.089Z,12.23
2019-05-17T06:33:12.014Z,11.40
2019-05-17T06:35:42.299Z,14.18
2019-05-17T06:38:11.995Z,12.28
2019-05-17T06:40:42.108Z,12.93
2019-05-17T06:43:13.125Z,12.03
2019-05-17T06:45:42.100Z,14.33
2019-05-17T06:48:11.793Z,12.90
2019-05-17T06:50:43.092Z,14.05
2019-05-17T06:53:12.444Z,13.15
2019-05-17T06:55:42.480Z,10.72
2019-05-17T06:58:12.278Z,11.78
2019-05-17T07:00:41.058Z,12.40
2019-05-17T07:03:09.844Z,12.47
2019-05-17T07:05:41.141Z,13.20
2019-05-17T07:08:10.760Z,12.93
2019-05-17T07:10:40.132Z,10.20
2019-05-17T07:13:10.573Z,13.00
2019-05-17T07:15:47.322Z,12.28
2019-05-17T07:18:10.458Z,12.63
2019-05-17T07:20:39.689Z,11.70
2019-05-17T07:23:10.678Z,11.65
2019-05-17T07:25:39.929Z,11.95
2019-05-17T07:28:10.044Z,10.93
2019-05-17T07:30:39.918Z,11.30
2019-05-17T07:33:10.156Z,11.43
2019-05-17T07:35:39.622Z,13.40
2019-05-17T07:38:10.643Z,12.30
2019-05-17T07:40:40.078Z,10.65
2019-05-17T07:43:14.305Z,9.90
2019-05-17T07:45:40.467Z,12.13
2019-05-17T07:48:09.950Z,13.62
2019-05-17T07:50:40.520Z,11.80
2019-05-17T07:53:10.216Z,12.15
2019-05-17T07:55:40.005Z,12.88
2019-05-17T07:58:09.906Z,13.62
2019-05-17T08:00:40.008Z,11.83
2019-05-17T08:03:12.671Z,12.28
2019-05-17T08:05:40.257Z,19.90
2019-05-17T08:08:10.020Z,11.70
2019-05-17T08:10:41.109Z,11.18
2019-05-17T08:13:25.186Z,10.75
2019-05-17T08:15:39.878Z,12.40
2019-05-17T08:18:10.759Z,12.10
2019-05-17T08:20:40.138Z,14.05
2019-05-17T08:23:10.659Z,12.00
2019-05-17T08:25:52.042Z,13.13
2019-05-17T08:28:11.023Z,17.70
2019-05-17T08:30:40.876Z,12.63
2019-05-17T08:33:10.841Z,22.70
2019-05-17T08:35:40.202Z,16.55
2019-05-17T08:38:10.250Z,15.90
2019-05-17T08:40:41.073Z,16.77
2019-05-17T08:43:10.114Z,14.95
2019-05-17T08:45:40.690Z,18.85
2019-05-17T08:48:09.946Z,17.50
2019-05-17T08:50:40.402Z,17.15
2019-05-17T08:53:10.637Z,15.72
2019-05-17T08:55:40.950Z,16.17
2019-05-17T08:58:10.595Z,14.35
2019-05-17T09:00:40.661Z,18.07
2019-05-17T09:03:10.705Z,14.45
2019-05-17T09:05:41.841Z,13.03
2019-05-17T09:08:10.760Z,15.45
2019-05-17T09:10:40.713Z,13.08
2019-05-17T09:13:12.488Z,13.18
2019-05-17T09:15:40.447Z,13.53
2019-05-17T09:18:09.857Z,15.25
2019-05-17T09:20:40.596Z,15.48
2019-05-17T09:23:09.914Z,13.60
2019-05-17T09:25:39.746Z,12.85
2019-05-17T09:28:10.131Z,12.80
2019-05-17T09:30:40.500Z,19.23
2019-05-17T09:33:11.239Z,27.52
2019-05-17T09:35:41.058Z,14.55
2019-05-17T09:38:10.700Z,13.93
2019-05-17T09:40:40.270Z,14.18
2019-05-17T09:43:10.271Z,15.13
2019-05-17T09:45:40.535Z,14.07
2019-05-17T09:48:10.580Z,13.05
2019-05-17T09:50:39.937Z,15.05
2019-05-17T09:53:10.861Z,13.78
2019-05-17T09:55:39.822Z,16.82
2019-05-17T09:58:09.974Z,11.48
2019-05-17T10:00:39.119Z,11.33
2019-05-17T10:03:09.767Z,13.83
2019-05-17T10:05:40.627Z,14.35
2019-05-17T10:08:10.932Z,18.02
2019-05-17T10:10:40.244Z,13.58
2019-05-17T10:13:09.887Z,12.63
2019-05-17T10:15:41.010Z,17.62
2019-05-17T10:18:11.046Z,12.65
2019-05-17T10:20:40.314Z,19.32
2019-05-17T10:23:10.435Z,12.70
2019-05-17T10:25:40.320Z,12.40
2019-05-17T10:28:10.093Z,10.82
2019-05-17T10:30:40.628Z,12.95
2019-05-17T10:33:09.974Z,17.32
2019-05-17T10:35:40.603Z,13.62
2019-05-17T10:38:10.233Z,13.00
2019-05-17T10:40:40.912Z,14.65
2019-05-17T10:43:10.434Z,15.90
2019-05-17T10:45:40.282Z,14.60
2019-05-17T10:48:10.464Z,12.33
2019-05-17T10:50:40.813Z,16.55
2019-05-17T10:53:09.991Z,15.80
2019-05-17T10:55:39.724Z,11.43
2019-05-17T10:58:10.040Z,8.88
2019-05-17T11:00:41.367Z,9.55
2019-05-17T11:03:10.269Z,10.00
2019-05-17T11:05:40.571Z,14.33
2019-05-17T11:08:10.809Z,28.47
2019-05-17T11:10:39.961Z,17.77
2019-05-17T11:13:09.044Z,23.83
2019-05-17T11:15:37.659Z,20.35
2019-05-17T11:18:06.283Z,16.23
2019-05-17T11:20:34.897Z,12.53
2019-05-17T11:23:03.819Z,10.40
2019-05-17T11:25:32.391Z,8.90
2019-05-17T11:28:01.101Z,21.75
2019-05-17T11:30:29.653Z,19.27
2019-05-17T11:32:58.255Z,8.30
2019-05-17T11:35:26.877Z,11.80
2019-05-17T11:37:55.634Z,10.98
2019-05-17T11:40:24.588Z,14.85
2019-05-17T11:42:53.176Z,8.43
2019-05-17T11:45:27.881Z,11.43
2019-05-17T11:47:52.120Z,9.05
2019-05-17T11:50:20.825Z,10.18
2019-05-17T11:52:49.312Z,10.68
2019-05-17T11:55:18.232Z,9.65
2019-05-17T11:57:46.840Z,12.03
2019-05-17T12:00:17.791Z,10.58
2019-05-17T12:02:46.371Z,11.48
2019-05-17T12:05:15.709Z,8.73
2019-05-17T12:07:44.514Z,18.67
2019-05-17T12:10:14.054Z,8.15
2019-05-17T12:12:42.700Z,6.40
2019-05-17T12:15:12.041Z,8.65
2019-05-17T12:17:40.613Z,8.35
2019-05-17T12:20:12.194Z,9.53
2019-05-17T12:22:40.805Z,9.78
2019-05-17T12:25:09.863Z,11.45
2019-05-17T12:27:38.414Z,10.32
2019-05-17T12:30:13.073Z,7.72
2019-05-17T12:32:41.995Z,10.05
2019-05-17T12:35:10.683Z,7.60
2019-05-17T12:37:42.234Z,10.58
2019-05-17T12:40:11.139Z,8.48
2019-05-17T12:42:39.743Z,9.48
2019-05-17T12:45:10.770Z,8.75
2019-05-17T12:47:39.230Z,9.80
2019-05-17T12:50:11.643Z,8.23
2019-05-17T12:52:40.274Z,7.47
2019-05-17T12:55:09.533Z,8.40
2019-05-17T12:57:39.612Z,12.20
2019-05-17T13:00:11.081Z,8.95
2019-05-17T13:02:39.629Z,10.00
2019-05-17T13:05:11.667Z,10.13
2019-05-17T13:07:40.676Z,8.28
2019-05-17T13:10:09.911Z,6.10
2019-05-17T13:12:38.511Z,11.03
2019-05-17T13:15:08.325Z,5.85
2019-05-17T13:17:36.933Z,6.03
2019-05-17T13:20:08.334Z,5.97
2019-05-17T13:22:37.219Z,8.88
2019-05-17T13:25:09.455Z,7.47
2019-05-17T13:27:39.277Z,7.45
2019-05-17T13:30:10.563Z,10.55
2019-05-17T13:32:39.165Z,7.40
2019-05-17T13:35:09.782Z,29.77
2019-05-17T13:37:38.425Z,10.65
2019-05-17T13:40:07.635Z,6.80
2019-05-17T13:42:36.245Z,8.10
2019-05-17T13:45:07.288Z,9.90
2019-05-17T13:47:35.924Z,7.72
2019-05-17T13:50:06.584Z,6.90
2019-05-17T13:52:35.228Z,11.18
2019-05-17T13:55:05.768Z,8.55
2019-05-17T13:57:34.431Z,6.75
2019-05-17T14:00:03.519Z,13.00
2019-05-17T14:02:32.466Z,18.50
2019-05-17T14:05:01.215Z,10.45
2019-05-17T14:07:29.751Z,10.03
2019-05-17T14:09:58.306Z,7.65
2019-05-17T14:12:26.836Z,7.78
2019-05-17T14:14:55.407Z,8.50
2019-05-17T14:17:23.942Z,7.62
2019-05-17T14:19:52.578Z,8.08
2019-05-17T14:22:22.767Z,7.58
2019-05-17T14:24:51.406Z,7.08
2019-05-17T14:27:20.032Z,8.08
2019-05-17T14:29:48.673Z,6.20
2019-05-17T14:32:17.203Z,10.03
2019-05-17T14:34:45.811Z,9.85
2019-05-17T14:37:14.351Z,8.63
2019-05-17T14:39:43.183Z,7.30
2019-05-17T14:42:11.793Z,9.90
2019-05-17T14:44:40.593Z,8.53
2019-05-17T14:47:09.204Z,8.35
2019-05-17T14:49:37.714Z,8.18
2019-05-17T14:52:06.405Z,10.18
2019-05-17T14:54:35.341Z,8.65
2019-05-17T14:57:03.874Z,7.55
2019-05-17T14:59:32.466Z,6.42
2019-05-17T15:02:01.011Z,8.58
2019-05-17T15:04:29.616Z,7.92
2019-05-17T15:07:00.189Z,8.38
2019-05-17T15:09:28.755Z,8.35
2019-05-17T15:11:57.564Z,13.50
2019-05-17T15:14:29.685Z,7.60
2019-05-17T15:16:59.313Z,8.68
2019-05-17T15:19:27.878Z,8.63
2019-05-17T15:21:56.416Z,8.90
2019-05-17T15:24:25.033Z,8.40
2019-05-17T15:27:04.997Z,8.08
2019-05-17T15:29:23.911Z,8.00
2019-05-17T15:31:52.600Z,10.88
2019-05-17T15:36:56.815Z,11.83
2019-05-17T15:39:27.186Z,9.35
2019-05-17T15:41:55.838Z,7.58
2019-05-17T15:44:26.988Z,10.20
2019-05-17T15:46:54.700Z,8.68
2019-05-17T15:49:23.359Z,11.68
2019-05-17T15:51:52.068Z,9.75
2019-05-17T15:54:20.606Z,9.13
2019-05-17T15:56:49.180Z,8.43
2019-05-17T15:59:17.795Z,8.48
2019-05-17T16:01:46.599Z,9.63
2019-05-17T16:04:16.943Z,7.40
2019-05-17T16:06:47.206Z,6.90
2019-05-17T16:09:16.058Z,10.75
2019-05-17T16:11:44.843Z,11.53
2019-05-17T16:14:13.449Z,7.60
2019-05-17T16:16:42.056Z,8.65
2019-05-17T16:19:10.702Z,9.80
2019-05-17T16:21:39.241Z,8.98
2019-05-17T16:24:07.887Z,9.38
2019-05-17T16:26:36.512Z,11.80
2019-05-17T16:29:05.126Z,8.38
2019-05-17T16:31:33.734Z,8.28
2019-05-17T16:34:02.378Z,9.75
2019-05-17T16:36:31.013Z,9.33
2019-05-17T16:38:59.591Z,10.72
2019-05-17T16:41:28.258Z,8.08
2019-05-17T16:43:59.391Z,7.28
2019-05-17T16:46:27.998Z,8.83
2019-05-17T16:48:59.091Z,10.68
2019-05-17T16:51:27.731Z,9.95
2019-05-17T16:53:56.295Z,8.65
2019-05-17T16:56:24.896Z,7.15
2019-05-17T16:58:53.444Z,9.30
2019-05-17T17:01:22.095Z,7.67
2019-05-17T17:03:50.719Z,19.55
2019-05-17T17:06:19.617Z,12.75
2019-05-17T17:08:48.226Z,9.68
2019-05-17T17:11:16.836Z,11.73
2019-05-17T17:13:45.522Z,9.05
2019-05-17T17:16:14.134Z,14.63
2019-05-17T17:18:42.750Z,10.63
2019-05-17T17:21:11.466Z,8.38
2019-05-17T17:23:40.011Z,9.53
2019-05-17T17:26:08.608Z,9.13
2019-05-17T17:28:37.260Z,8.78
2019-05-17T17:31:08.781Z,10.35
2019-05-17T17:33:37.348Z,8.30
2019-05-17T17:36:06.097Z,10.50
2019-05-17T17:38:34.711Z,11.30
2019-05-17T17:41:03.331Z,13.15
2019-05-17T17:43:31.944Z,10.35
2019-05-17T17:46:00.525Z,9.30
2019-05-17T17:48:29.311Z,12.15
2019-05-17T17:50:58.177Z,11.12
2019-05-17T17:53:26.725Z,17.55
2019-05-17T17:55:54.285Z,23.15
2019-05-17T17:58:22.899Z,20.37
2019-05-17T18:00:55.566Z,17.27
2019-05-17T18:03:24.174Z,16.85
2019-05-17T18:05:52.791Z,14.18
2019-05-17T18:08:21.361Z,13.03
2019-05-17T18:10:49.972Z,12.88
2019-05-17T18:13:18.708Z,14.47
2019-05-17T18:15:50.492Z,12.05
2019-05-17T18:18:19.926Z,16.50
2019-05-17T18:20:48.474Z,36.17
2019-05-17T18:23:22.496Z,25.40
2019-05-17T18:25:48.055Z,47.30
2019-05-17T18:28:16.835Z,34.30
2019-05-17T18:30:45.488Z,21.55
2019-05-17T18:33:14.219Z,27.07
2019-05-17T18:35:43.254Z,17.62
2019-05-17T18:38:11.873Z,25.75
2019-05-17T18:40:40.443Z,19.00
2019-05-17T18:43:09.055Z,15.98
2019-05-17T18:45:37.717Z,15.45
2019-05-17T18:48:06.694Z,9.78
2019-05-17T18:50:35.595Z,18.95
2019-05-17T18:53:06.397Z,18.80
2019-05-17T18:55:35.396Z,20.70
2019-05-17T18:58:04.098Z,22.75
2019-05-17T19:00:32.858Z,23.12
2019-05-17T19:03:01.494Z,19.23
2019-05-17T19:05:30.128Z,18.92
2019-05-17T19:08:00.375Z,18.20
2019-05-17T19:10:29.616Z,18.73
2019-05-17T19:12:58.192Z,18.70
2019-05-17T19:15:26.868Z,22.48
2019-05-17T19:17:55.487Z,25.85
2019-05-17T19:20:24.155Z,20.55
2019-05-17T19:22:52.864Z,27.32
2019-05-17T19:25:21.479Z,24.40
2019-05-17T19:27:50.325Z,29.27
2019-05-17T19:30:19.940Z,27.85
2019-05-17T19:32:48.560Z,25.37
2019-05-17T19:35:17.177Z,22.13
2019-05-17T19:37:45.721Z,20.68
2019-05-17T19:40:14.702Z,17.20
2019-05-17T19:42:43.316Z,23.50
2019-05-17T19:45:13.665Z,31.05
2019-05-17T19:47:42.214Z,19.75
2019-05-17T19:50:13.534Z,19.42
2019-05-17T19:52:41.813Z,22.55
2019-05-17T19:55:11.037Z,20.05
2019-05-17T19:57:39.645Z,29.27
2019-05-17T20:00:11.737Z,31.95
2019-05-17T20:02:40.313Z,26.82
2019-05-17T20:05:09.161Z,24.85
2019-05-17T20:07:39.389Z,22.90
2019-05-17T20:10:09.924Z,22.73
2019-05-17T20:12:38.539Z,23.70
2019-05-17T20:15:17.463Z,24.82
2019-05-17T20:17:38.429Z,17.70
2019-05-17T20:20:07.971Z,18.23
2019-05-17T20:22:36.595Z,13.38
2019-05-17T20:25:06.657Z,19.40
2019-05-17T20:27:35.580Z,17.00
2019-05-17T20:30:10.985Z,21.95
2019-05-17T20:32:39.588Z,18.42
2019-05-17T20:35:08.626Z,22.20
2019-05-17T20:37:37.272Z,20.00
2019-05-17T20:40:08.230Z,21.87
2019-05-17T20:42:36.781Z,26.95
2019-05-17T20:45:10.217Z,35.78
2019-05-17T20:47:38.930Z,24.50
2019-05-17T20:50:10.704Z,31.27
2019-05-17T20:52:39.255Z,43.78
2019-05-17T20:55:08.402Z,50.90
2019-05-17T20:57:37.017Z,22.80
2019-05-17T21:00:07.832Z,19.32
2019-05-17T21:02:36.397Z,20.23
2019-05-17T21:05:07.116Z,18.30
2019-05-17T21:07:35.795Z,18.87
2019-05-17T21:10:05.516Z,18.27
2019-05-17T21:12:34.097Z,14.33
2019-05-17T21:15:02.646Z,14.45
2019-05-17T21:17:31.264Z,14.47
2019-05-17T21:19:59.805Z,36.88
2019-05-17T21:22:28.412Z,20.48
2019-05-17T21:24:56.984Z,29.25
2019-05-17T21:27:25.675Z,28.98
2019-05-17T21:29:54.256Z,32.45
2019-05-17T21:32:22.870Z,28.83
2019-05-17T21:34:51.487Z,29.92
2019-05-17T21:37:20.212Z,31.75
2019-05-17T21:39:48.859Z,34.30
2019-05-17T21:42:17.413Z,21.97
2019-05-17T21:44:46.115Z,22.65
2019-05-17T21:47:14.669Z,20.88
2019-05-17T21:49:43.276Z,20.40
2019-05-17T21:52:11.819Z,18.50
2019-05-17T21:54:40.464Z,18.73
2019-05-17T21:57:09.223Z,18.12
2019-05-17T21:59:37.862Z,21.77
2019-05-17T22:02:06.660Z,14.13
2019-05-17T22:04:35.280Z,20.23
2019-05-17T22:07:04.684Z,20.88
2019-05-17T22:09:33.267Z,19.23
2019-05-17T22:12:12.452Z,18.05
2019-05-17T22:14:41.151Z,17.05
2019-05-17T22:17:10.570Z,20.15
2019-05-17T22:19:39.122Z,21.30
2019-05-17T22:22:07.768Z,17.60
2019-05-17T22:24:36.425Z,16.77
2019-05-17T22:27:06.641Z,16.25
2019-05-17T22:29:35.274Z,14.73
2019-05-17T22:32:03.970Z,14.75
2019-05-17T22:34:32.566Z,18.42
2019-05-17T22:37:01.224Z,14.20
2019-05-17T22:39:31.269Z,15.50
2019-05-17T22:42:01.332Z,15.85
2019-05-17T22:44:29.881Z,13.58
2019-05-17T22:46:58.519Z,14.28
2019-05-17T22:49:27.052Z,13.53
2019-05-17T22:51:55.623Z,16.25
2019-05-17T22:54:24.232Z,16.95
2019-05-17T22:56:52.843Z,12.95
2019-05-17T22:59:21.412Z,12.95
2019-05-17T23:01:49.982Z,15.45
2019-05-17T23:04:18.529Z,13.50
2019-05-17T23:06:47.031Z,12.35
2019-05-17T23:09:15.615Z,13.13
2019-05-17T23:11:44.276Z,12.58
2019-05-17T23:14:12.888Z,14.10
2019-05-17T23:16:50.915Z,13.53
2019-05-17T23:19:11.994Z,15.20
2019-05-17T23:21:40.607Z,11.33
2019-05-17T23:24:09.220Z,12.78
2019-05-17T23:26:37.889Z,15.45
2019-05-17T23:29:06.496Z,13.45
2019-05-17T23:31:35.039Z,12.65
2019-05-17T23:34:03.643Z,11.48
2019-05-17T23:36:32.283Z,13.48
2019-05-17T23:39:01.003Z,16.90
2019-05-17T23:41:29.532Z,12.13
2019-05-17T23:43:58.282Z,10.60
2019-05-17T23:46:26.823Z,12.18
2019-05-17T23:48:55.357Z,15.35
2019-05-17T23:51:23.960Z,12.23
2019-05-17T23:53:52.576Z,14.13
2019-05-17T23:56:21.170Z,13.15
2019-05-17T23:58:49.793Z,13.15
